sensor_id;sensor_type;location;lat;lon;timestamp;pressure;altitude;pressure_sealevel;temperature;humidity
77574;BME280;66710;48.868;9.080;2023-09-19T00:02:02;97621.44;;;16.30;100.00
77574;BME280;66710;48.868;9.080;2023-09-19T00:04:32;97626.94;;;16.30;100.00
77574;BME280;66710;48.868;9.080;2023-09-19T00:06:58;97626.63;;;16.32;100.00
77574;BME280;66710;48.868;9.080;2023-09-19T00:09:24;97629.38;;;16.32;100.00
77574;BME280;66710;48.868;9.080;2023-09-19T00:11:52;97634.56;;;16.34;100.00
77574;BME280;66710;48.868;9.080;2023-09-19T00:14:18;97638.47;;;16.33;100.00
77574;BME280;66710;48.868;9.080;2023-09-19T00:16:43;97637.47;;;16.28;100.00
77574;BME280;66710;48.868;9.080;2023-09-19T00:19:08;97641.84;;;16.29;100.00
77574;BME280;66710;48.868;9.080;2023-09-19T00:21:34;97648.78;;;16.36;100.00
77574;BME280;66710;48.868;9.080;2023-09-19T00:24:04;97666.75;;;16.33;100.00
77574;BME280;66710;48.868;9.080;2023-09-19T00:26:31;97656.25;;;16.35;100.00
77574;BME280;66710;48.868;9.080;2023-09-19T00:28:57;97649.94;;;16.35;100.00
77574;BME280;66710;48.868;9.080;2023-09-19T00:31:22;97657.91;;;16.45;100.00
77574;BME280;66710;48.868;9.080;2023-09-19T00:33:48;97647.38;;;16.38;100.00
77574;BME280;66710;48.868;9.080;2023-09-19T00:36:13;97645.56;;;16.34;100.00
77574;BME280;66710;48.868;9.080;2023-09-19T00:38:39;97653.81;;;16.34;100.00
77574;BME280;66710;48.868;9.080;2023-09-19T00:41:04;97654.28;;;16.36;100.00
77574;BME280;66710;48.868;9.080;2023-09-19T00:43:29;97662.34;;;16.23;100.00
77574;BME280;66710;48.868;9.080;2023-09-19T00:45:59;97664.63;;;16.30;100.00
77574;BME280;66710;48.868;9.080;2023-09-19T00:48:26;97658.00;;;16.22;100.00
77574;BME280;66710;48.868;9.080;2023-09-19T00:50:53;97660.28;;;16.29;100.00
77574;BME280;66710;48.868;9.080;2023-09-19T00:53:23;97661.53;;;16.23;100.00
77574;BME280;66710;48.868;9.080;2023-09-19T00:55:49;97668.84;;;16.27;100.00
77574;BME280;66710;48.868;9.080;2023-09-19T00:58:17;97675.47;;;16.26;100.00
77574;BME280;66710;48.868;9.080;2023-09-19T01:00:43;97664.78;;;16.25;100.00
77574;BME280;66710;48.868;9.080;2023-09-19T01:03:10;97658.97;;;16.26;100.00
77574;BME280;66710;48.868;9.080;2023-09-19T01:05:35;97658.31;;;16.21;100.00
77574;BME280;66710;48.868;9.080;2023-09-19T01:08:01;97666.38;;;16.17;100.00
77574;BME280;66710;48.868;9.080;2023-09-19T01:10:26;97666.41;;;16.26;100.00
77574;BME280;66710;48.868;9.080;2023-09-19T01:13:13;97676.75;;;16.20;100.00
77574;BME280;66710;48.868;9.080;2023-09-19T01:16:03;97672.22;;;16.24;100.00
77574;BME280;66710;48.868;9.080;2023-09-19T01:18:43;97675.28;;;16.23;100.00
77574;BME280;66710;48.868;9.080;2023-09-19T01:21:43;97678.84;;;16.23;100.00
77574;BME280;66710;48.868;9.080;2023-09-19T01:29:49;97689.03;;;16.23;100.00
77574;BME280;66710;48.868;9.080;2023-09-19T01:32:17;97685.13;;;16.15;100.00
77574;BME280;66710;48.868;9.080;2023-09-19T01:35:04;97695.63;;;16.13;100.00
77574;BME280;66710;48.868;9.080;2023-09-19T01:37:30;97696.25;;;16.10;100.00
77574;BME280;66710;48.868;9.080;2023-09-19T01:40:05;97697.19;;;16.05;100.00
77574;BME280;66710;48.868;9.080;2023-09-19T01:42:48;97697.00;;;16.02;100.00
77574;BME280;66710;48.868;9.080;2023-09-19T01:48:22;97704.41;;;15.92;100.00
77574;BME280;66710;48.868;9.080;2023-09-19T01:51:00;97698.72;;;15.89;100.00
77574;BME280;66710;48.868;9.080;2023-09-19T01:53:29;97700.84;;;15.92;100.00
77574;BME280;66710;48.868;9.080;2023-09-19T01:55:58;97703.25;;;15.85;100.00
77574;BME280;66710;48.868;9.080;2023-09-19T01:58:47;97704.06;;;15.85;100.00
77574;BME280;66710;48.868;9.080;2023-09-19T02:01:18;97714.19;;;15.76;100.00
77574;BME280;66710;48.868;9.080;2023-09-19T02:03:46;97720.00;;;15.75;100.00
77574;BME280;66710;48.868;9.080;2023-09-19T02:06:16;97724.13;;;15.72;100.00
77574;BME280;66710;48.868;9.080;2023-09-19T02:08:44;97721.38;;;15.72;100.00
77574;BME280;66710;48.868;9.080;2023-09-19T02:11:13;97722.16;;;15.64;100.00
77574;BME280;66710;48.868;9.080;2023-09-19T02:13:38;97723.06;;;15.59;100.00
77574;BME280;66710;48.868;9.080;2023-09-19T02:16:04;97723.69;;;15.56;100.00
77574;BME280;66710;48.868;9.080;2023-09-19T02:18:30;97717.09;;;15.57;100.00
77574;BME280;66710;48.868;9.080;2023-09-19T02:20:56;97720.75;;;15.52;100.00
77574;BME280;66710;48.868;9.080;2023-09-19T02:23:24;97722.50;;;15.48;100.00
77574;BME280;66710;48.868;9.080;2023-09-19T02:25:56;97727.50;;;15.46;100.00
77574;BME280;66710;48.868;9.080;2023-09-19T02:28:29;97726.81;;;15.41;100.00
77574;BME280;66710;48.868;9.080;2023-09-19T02:30:58;97721.75;;;15.34;100.00
77574;BME280;66710;48.868;9.080;2023-09-19T02:33:23;97729.38;;;15.37;100.00
77574;BME280;66710;48.868;9.080;2023-09-19T02:35:49;97740.97;;;15.34;100.00
77574;BME280;66710;48.868;9.080;2023-09-19T02:38:15;97731.53;;;15.26;100.00
77574;BME280;66710;48.868;9.080;2023-09-19T02:40:43;97740.91;;;15.25;100.00
77574;BME280;66710;48.868;9.080;2023-09-19T02:43:09;97735.28;;;15.30;100.00
77574;BME280;66710;48.868;9.080;2023-09-19T02:45:35;97735.28;;;15.30;100.00
77574;BME280;66710;48.868;9.080;2023-09-19T02:48:00;97747.81;;;15.23;100.00
77574;BME280;66710;48.868;9.080;2023-09-19T02:50:27;97738.16;;;15.25;100.00
77574;BME280;66710;48.868;9.080;2023-09-19T02:52:53;97741.22;;;15.24;100.00
77574;BME280;66710;48.868;9.080;2023-09-19T02:55:20;97736.34;;;15.21;100.00
77574;BME280;66710;48.868;9.080;2023-09-19T02:57:50;97750.06;;;15.21;100.00
77574;BME280;66710;48.868;9.080;2023-09-19T03:00:18;97749.75;;;15.22;100.00
77574;BME280;66710;48.868;9.080;2023-09-19T03:02:46;97761.22;;;15.24;100.00
77574;BME280;66710;48.868;9.080;2023-09-19T03:05:12;97763.06;;;15.29;100.00
77574;BME280;66710;48.868;9.080;2023-09-19T03:07:37;97764.53;;;15.35;100.00
77574;BME280;66710;48.868;9.080;2023-09-19T03:10:05;97765.25;;;15.41;100.00
77574;BME280;66710;48.868;9.080;2023-09-19T03:12:31;97761.78;;;15.35;100.00
77574;BME280;66710;48.868;9.080;2023-09-19T03:14:57;97774.91;;;15.38;100.00
77574;BME280;66710;48.868;9.080;2023-09-19T03:17:22;97764.13;;;15.42;100.00
77574;BME280;66710;48.868;9.080;2023-09-19T03:19:47;97764.81;;;15.47;100.00
77574;BME280;66710;48.868;9.080;2023-09-19T03:22:14;97764.50;;;15.49;100.00
77574;BME280;66710;48.868;9.080;2023-09-19T03:24:40;97767.06;;;15.45;100.00
77574;BME280;66710;48.868;9.080;2023-09-19T03:27:11;97765.44;;;15.44;100.00
77574;BME280;66710;48.868;9.080;2023-09-19T03:29:39;97766.75;;;15.47;100.00
77574;BME280;66710;48.868;9.080;2023-09-19T03:32:04;97773.91;;;15.34;100.00
77574;BME280;66710;48.868;9.080;2023-09-19T03:34:30;97776.28;;;15.27;100.00
77574;BME280;66710;48.868;9.080;2023-09-19T03:36:55;97777.31;;;15.17;100.00
77574;BME280;66710;48.868;9.080;2023-09-19T03:39:20;97778.66;;;15.06;100.00
77574;BME280;66710;48.868;9.080;2023-09-19T03:41:46;97781.50;;;15.01;100.00
77574;BME280;66710;48.868;9.080;2023-09-19T03:44:11;97777.22;;;14.94;100.00
77574;BME280;66710;48.868;9.080;2023-09-19T03:46:37;97779.28;;;14.89;100.00
77574;BME280;66710;48.868;9.080;2023-09-19T03:49:02;97774.41;;;14.86;100.00
77574;BME280;66710;48.868;9.080;2023-09-19T03:51:28;97773.91;;;14.84;100.00
77574;BME280;66710;48.868;9.080;2023-09-19T03:53:53;97769.53;;;14.83;100.00
77574;BME280;66710;48.868;9.080;2023-09-19T03:56:18;97762.13;;;14.83;100.00
77574;BME280;66710;48.868;9.080;2023-09-19T03:58:44;97772.38;;;14.77;100.00
77574;BME280;66710;48.868;9.080;2023-09-19T04:01:10;97782.84;;;14.75;100.00
77574;BME280;66710;48.868;9.080;2023-09-19T04:03:35;97773.50;;;14.76;100.00
77574;BME280;66710;48.868;9.080;2023-09-19T04:06:15;97765.06;;;14.87;100.00
77574;BME280;66710;48.868;9.080;2023-09-19T04:08:41;97767.81;;;14.87;100.00
77574;BME280;66710;48.868;9.080;2023-09-19T04:11:06;97770.03;;;14.85;100.00
77574;BME280;66710;48.868;9.080;2023-09-19T04:13:32;97763.75;;;14.84;100.00
77574;BME280;66710;48.868;9.080;2023-09-19T04:15:57;97772.69;;;14.90;100.00
77574;BME280;66710;48.868;9.080;2023-09-19T04:18:23;97766.78;;;14.96;100.00
77574;BME280;66710;48.868;9.080;2023-09-19T04:20:51;97784.25;;;15.01;100.00
77574;BME280;66710;48.868;9.080;2023-09-19T04:23:16;97783.72;;;15.12;100.00
77574;BME280;66710;48.868;9.080;2023-09-19T04:25:43;97778.34;;;15.07;100.00
77574;BME280;66710;48.868;9.080;2023-09-19T04:28:08;97779.84;;;15.13;100.00
77574;BME280;66710;48.868;9.080;2023-09-19T04:30:36;97786.97;;;15.14;100.00
77574;BME280;66710;48.868;9.080;2023-09-19T04:33:02;97782.88;;;15.26;100.00
77574;BME280;66710;48.868;9.080;2023-09-19T04:35:27;97792.84;;;15.22;100.00
77574;BME280;66710;48.868;9.080;2023-09-19T04:37:54;97790.22;;;15.16;100.00
77574;BME280;66710;48.868;9.080;2023-09-19T04:40:20;97789.41;;;15.16;100.00
77574;BME280;66710;48.868;9.080;2023-09-19T04:42:53;97790.91;;;15.22;100.00
77574;BME280;66710;48.868;9.080;2023-09-19T04:45:22;97796.50;;;15.17;100.00
77574;BME280;66710;48.868;9.080;2023-09-19T04:47:47;97805.88;;;15.16;100.00
77574;BME280;66710;48.868;9.080;2023-09-19T04:50:13;97802.31;;;15.15;100.00
77574;BME280;66710;48.868;9.080;2023-09-19T04:52:40;97807.19;;;15.05;100.00
77574;BME280;66710;48.868;9.080;2023-09-19T04:55:08;97814.81;;;15.08;100.00
77574;BME280;66710;48.868;9.080;2023-09-19T04:57:34;97823.66;;;15.05;100.00
77574;BME280;66710;48.868;9.080;2023-09-19T05:00:00;97825.50;;;15.09;100.00
77574;BME280;66710;48.868;9.080;2023-09-19T05:02:25;97832.84;;;15.00;100.00
77574;BME280;66710;48.868;9.080;2023-09-19T05:04:55;97839.91;;;15.01;100.00
77574;BME280;66710;48.868;9.080;2023-09-19T05:07:24;97837.47;;;15.00;100.00
77574;BME280;66710;48.868;9.080;2023-09-19T05:09:51;97843.81;;;15.00;100.00
77574;BME280;66710;48.868;9.080;2023-09-19T05:12:16;97846.00;;;14.98;100.00
77574;BME280;66710;48.868;9.080;2023-09-19T05:14:44;97852.31;;;14.85;100.00
77574;BME280;66710;48.868;9.080;2023-09-19T05:17:10;97851.72;;;14.74;100.00
77574;BME280;66710;48.868;9.080;2023-09-19T05:19:35;97854.56;;;14.83;100.00
77574;BME280;66710;48.868;9.080;2023-09-19T05:22:03;97857.31;;;14.83;100.00
77574;BME280;66710;48.868;9.080;2023-09-19T05:24:29;97865.81;;;14.67;100.00
77574;BME280;66710;48.868;9.080;2023-09-19T05:26:56;97871.50;;;14.71;100.00
77574;BME280;66710;48.868;9.080;2023-09-19T05:29:22;97869.06;;;14.69;100.00
77574;BME280;66710;48.868;9.080;2023-09-19T05:31:47;97863.09;;;14.67;100.00
77574;BME280;66710;48.868;9.080;2023-09-19T05:34:13;97855.25;;;14.74;100.00
77574;BME280;66710;48.868;9.080;2023-09-19T05:36:38;97870.06;;;14.73;100.00
77574;BME280;66710;48.868;9.080;2023-09-19T05:39:04;97873.66;;;14.74;100.00
77574;BME280;66710;48.868;9.080;2023-09-19T05:41:32;97867.53;;;14.77;100.00
77574;BME280;66710;48.868;9.080;2023-09-19T05:43:57;97870.91;;;14.74;100.00
77574;BME280;66710;48.868;9.080;2023-09-19T05:46:24;97879.16;;;14.74;100.00
77574;BME280;66710;48.868;9.080;2023-09-19T05:48:55;97884.31;;;14.75;100.00
77574;BME280;66710;48.868;9.080;2023-09-19T05:51:22;97890.38;;;14.58;100.00
77574;BME280;66710;48.868;9.080;2023-09-19T05:53:48;97891.03;;;14.50;100.00
77574;BME280;66710;48.868;9.080;2023-09-19T05:56:14;97895.66;;;14.36;100.00
77574;BME280;66710;48.868;9.080;2023-09-19T05:58:40;97897.41;;;14.13;100.00
77574;BME280;66710;48.868;9.080;2023-09-19T06:01:08;97902.25;;;14.02;100.00
77574;BME280;66710;48.868;9.080;2023-09-19T06:03:34;97903.66;;;13.99;100.00
77574;BME280;66710;48.868;9.080;2023-09-19T06:06:03;97910.97;;;14.04;100.00
77574;BME280;66710;48.868;9.080;2023-09-19T06:08:32;97910.00;;;14.14;100.00
77574;BME280;66710;48.868;9.080;2023-09-19T06:10:57;97912.34;;;14.20;100.00
77574;BME280;66710;48.868;9.080;2023-09-19T06:13:22;97918.03;;;14.24;100.00
77574;BME280;66710;48.868;9.080;2023-09-19T06:15:50;97916.06;;;14.30;100.00
77574;BME280;66710;48.868;9.080;2023-09-19T06:18:16;97919.53;;;14.35;100.00
77574;BME280;66710;48.868;9.080;2023-09-19T06:20:48;97909.59;;;14.39;100.00
77574;BME280;66710;48.868;9.080;2023-09-19T06:23:16;97925.06;;;14.49;100.00
77574;BME280;66710;48.868;9.080;2023-09-19T06:25:42;97913.78;;;14.51;100.00
77574;BME280;66710;48.868;9.080;2023-09-19T06:28:09;97922.22;;;14.54;100.00
77574;BME280;66710;48.868;9.080;2023-09-19T06:30:37;97921.56;;;14.63;100.00
77574;BME280;66710;48.868;9.080;2023-09-19T06:33:05;97912.34;;;14.72;100.00
77574;BME280;66710;48.868;9.080;2023-09-19T06:35:34;97915.72;;;14.83;100.00
77574;BME280;66710;48.868;9.080;2023-09-19T06:38:02;97911.16;;;14.92;100.00
77574;BME280;66710;48.868;9.080;2023-09-19T06:40:28;97917.44;;;14.93;100.00
77574;BME280;66710;48.868;9.080;2023-09-19T06:42:56;97915.00;;;15.05;100.00
77574;BME280;66710;48.868;9.080;2023-09-19T06:45:22;97918.78;;;15.09;100.00
77574;BME280;66710;48.868;9.080;2023-09-19T06:47:50;97921.63;;;15.04;100.00
77574;BME280;66710;48.868;9.080;2023-09-19T06:50:20;97919.09;;;15.08;100.00
77574;BME280;66710;48.868;9.080;2023-09-19T06:52:48;97923.16;;;15.10;100.00
77574;BME280;66710;48.868;9.080;2023-09-19T06:55:18;97920.19;;;15.21;100.00
77574;BME280;66710;48.868;9.080;2023-09-19T06:57:45;97922.75;;;15.31;100.00
77574;BME280;66710;48.868;9.080;2023-09-19T07:00:11;97926.50;;;15.21;100.00
77574;BME280;66710;48.868;9.080;2023-09-19T07:03:05;97940.31;;;15.30;100.00
77574;BME280;66710;48.868;9.080;2023-09-19T07:05:34;97944.81;;;15.26;100.00
77574;BME280;66710;48.868;9.080;2023-09-19T07:08:03;97951.94;;;15.27;100.00
77574;BME280;66710;48.868;9.080;2023-09-19T07:10:29;97950.69;;;15.19;100.00
77574;BME280;66710;48.868;9.080;2023-09-19T07:13:01;97952.03;;;15.22;100.00
77574;BME280;66710;48.868;9.080;2023-09-19T07:15:28;97963.00;;;15.22;100.00
77574;BME280;66710;48.868;9.080;2023-09-19T07:17:56;97957.94;;;15.29;100.00
77574;BME280;66710;48.868;9.080;2023-09-19T07:20:23;97965.13;;;15.39;100.00
77574;BME280;66710;48.868;9.080;2023-09-19T07:22:51;97965.38;;;15.28;100.00
77574;BME280;66710;48.868;9.080;2023-09-19T07:25:17;97969.31;;;15.36;100.00
77574;BME280;66710;48.868;9.080;2023-09-19T07:27:42;97976.41;;;15.65;100.00
77574;BME280;66710;48.868;9.080;2023-09-19T07:30:09;97975.50;;;15.69;100.00
77574;BME280;66710;48.868;9.080;2023-09-19T07:32:35;97972.97;;;15.73;100.00
77574;BME280;66710;48.868;9.080;2023-09-19T07:35:02;97983.13;;;15.86;100.00
77574;BME280;66710;48.868;9.080;2023-09-19T07:37:29;97991.63;;;16.13;100.00
77574;BME280;66710;48.868;9.080;2023-09-19T07:39:56;97990.25;;;16.01;100.00
77574;BME280;66710;48.868;9.080;2023-09-19T07:42:21;97998.00;;;15.99;100.00
77574;BME280;66710;48.868;9.080;2023-09-19T07:44:47;97993.59;;;15.98;100.00
77574;BME280;66710;48.868;9.080;2023-09-19T07:47:15;98001.72;;;16.17;100.00
77574;BME280;66710;48.868;9.080;2023-09-19T07:49:41;97993.13;;;16.33;100.00
77574;BME280;66710;48.868;9.080;2023-09-19T07:52:08;97999.53;;;16.28;100.00
77574;BME280;66710;48.868;9.080;2023-09-19T07:54:34;98005.63;;;16.39;100.00
77574;BME280;66710;48.868;9.080;2023-09-19T07:57:01;98009.00;;;16.58;100.00
77574;BME280;66710;48.868;9.080;2023-09-19T07:59:26;98007.03;;;16.50;100.00
77574;BME280;66710;48.868;9.080;2023-09-19T08:01:51;98011.41;;;16.96;100.00
77574;BME280;66710;48.868;9.080;2023-09-19T08:04:17;98020.91;;;16.90;100.00
77574;BME280;66710;48.868;9.080;2023-09-19T08:06:44;98015.84;;;16.83;100.00
77574;BME280;66710;48.868;9.080;2023-09-19T08:09:09;98013.69;;;18.14;100.00
77574;BME280;66710;48.868;9.080;2023-09-19T08:11:36;98018.19;;;17.53;100.00
77574;BME280;66710;48.868;9.080;2023-09-19T08:14:01;98018.22;;;17.61;100.00
77574;BME280;66710;48.868;9.080;2023-09-19T08:16:26;98012.75;;;17.70;100.00
77574;BME280;66710;48.868;9.080;2023-09-19T08:18:52;98013.13;;;17.15;100.00
77574;BME280;66710;48.868;9.080;2023-09-19T08:21:20;98008.28;;;17.52;100.00
77574;BME280;66710;48.868;9.080;2023-09-19T08:23:45;98020.69;;;17.80;100.00
77574;BME280;66710;48.868;9.080;2023-09-19T08:26:10;98013.38;;;18.60;100.00
77574;BME280;66710;48.868;9.080;2023-09-19T08:28:36;98009.94;;;18.28;100.00
77574;BME280;66710;48.868;9.080;2023-09-19T08:31:07;98022.59;;;18.81;100.00
77574;BME280;66710;48.868;9.080;2023-09-19T08:33:34;98018.34;;;18.05;100.00
77574;BME280;66710;48.868;9.080;2023-09-19T08:36:00;98013.34;;;18.07;100.00
77574;BME280;66710;48.868;9.080;2023-09-19T08:38:25;98014.16;;;18.16;100.00
77574;BME280;66710;48.868;9.080;2023-09-19T08:40:57;98017.91;;;18.38;100.00
77574;BME280;66710;48.868;9.080;2023-09-19T08:43:22;98033.75;;;17.97;100.00
77574;BME280;66710;48.868;9.080;2023-09-19T08:45:47;98025.41;;;18.46;100.00
77574;BME280;66710;48.868;9.080;2023-09-19T08:50:49;98037.56;;;18.45;100.00
77574;BME280;66710;48.868;9.080;2023-09-19T08:53:22;98039.50;;;18.27;99.13
77574;BME280;66710;48.868;9.080;2023-09-19T08:55:52;98044.88;;;18.41;95.57
77574;BME280;66710;48.868;9.080;2023-09-19T08:58:21;98037.88;;;18.52;93.86
77574;BME280;66710;48.868;9.080;2023-09-19T09:00:53;98033.50;;;18.34;94.21
77574;BME280;66710;48.868;9.080;2023-09-19T09:03:20;98035.16;;;18.87;91.73
77574;BME280;66710;48.868;9.080;2023-09-19T09:05:46;98036.91;;;18.40;87.11
77574;BME280;66710;48.868;9.080;2023-09-19T09:08:13;98034.56;;;19.38;86.20
77574;BME280;66710;48.868;9.080;2023-09-19T09:10:38;98044.69;;;18.99;88.63
77574;BME280;66710;48.868;9.080;2023-09-19T09:13:06;98046.97;;;18.70;86.07
77574;BME280;66710;48.868;9.080;2023-09-19T09:15:36;98050.03;;;18.25;87.75
77574;BME280;66710;48.868;9.080;2023-09-19T09:18:02;98050.34;;;18.24;88.73
77574;BME280;66710;48.868;9.080;2023-09-19T09:20:28;98042.97;;;17.93;85.97
77574;BME280;66710;48.868;9.080;2023-09-19T09:22:54;98044.53;;;17.85;84.79
77574;BME280;66710;48.868;9.080;2023-09-19T09:25:20;98050.50;;;18.10;83.20
77574;BME280;66710;48.868;9.080;2023-09-19T09:27:59;98053.22;;;18.01;83.27
77574;BME280;66710;48.868;9.080;2023-09-19T09:30:33;98050.19;;;18.29;81.59
77574;BME280;66710;48.868;9.080;2023-09-19T09:33:11;98038.72;;;18.44;82.07
77574;BME280;66710;48.868;9.080;2023-09-19T09:35:46;98044.38;;;19.00;78.57
77574;BME280;66710;48.868;9.080;2023-09-19T09:38:12;98041.38;;;19.40;78.23
77574;BME280;66710;48.868;9.080;2023-09-19T09:40:49;98044.19;;;19.23;77.45
77574;BME280;66710;48.868;9.080;2023-09-19T09:43:34;98047.41;;;19.25;77.68
77574;BME280;66710;48.868;9.080;2023-09-19T09:46:13;98041.06;;;19.33;76.84
77574;BME280;66710;48.868;9.080;2023-09-19T09:48:45;98044.41;;;18.83;79.07
77574;BME280;66710;48.868;9.080;2023-09-19T09:51:31;98041.00;;;19.98;74.14
77574;BME280;66710;48.868;9.080;2023-09-19T09:54:15;98030.94;;;19.46;73.53
77574;BME280;66710;48.868;9.080;2023-09-19T09:56:56;98040.41;;;19.45;74.63
77574;BME280;66710;48.868;9.080;2023-09-19T10:02:11;98035.69;;;19.37;72.56
77574;BME280;66710;48.868;9.080;2023-09-19T10:04:39;98041.75;;;19.77;73.85
77574;BME280;66710;48.868;9.080;2023-09-19T10:07:42;98035.16;;;19.91;71.66
77574;BME280;66710;48.868;9.080;2023-09-19T10:10:14;98035.50;;;20.40;68.20
77574;BME280;66710;48.868;9.080;2023-09-19T10:12:48;98032.63;;;20.57;66.65
77574;BME280;66710;48.868;9.080;2023-09-19T10:15:18;98041.78;;;20.79;65.42
77574;BME280;66710;48.868;9.080;2023-09-19T10:17:46;98050.47;;;19.41;68.86
77574;BME280;66710;48.868;9.080;2023-09-19T10:20:14;98039.84;;;19.04;69.11
77574;BME280;66710;48.868;9.080;2023-09-19T10:23:12;98020.63;;;19.64;67.71
77574;BME280;66710;48.868;9.080;2023-09-19T10:25:39;98021.31;;;20.20;67.37
77574;BME280;66710;48.868;9.080;2023-09-19T10:28:06;98033.78;;;19.67;68.30
77574;BME280;66710;48.868;9.080;2023-09-19T10:30:37;98025.25;;;19.51;64.77
77574;BME280;66710;48.868;9.080;2023-09-19T10:33:04;98018.81;;;19.29;66.30
77574;BME280;66710;48.868;9.080;2023-09-19T10:35:33;98027.13;;;20.27;64.79
77574;BME280;66710;48.868;9.080;2023-09-19T10:38:03;98021.47;;;20.45;64.04
77574;BME280;66710;48.868;9.080;2023-09-19T10:40:29;98027.06;;;20.57;64.58
77574;BME280;66710;48.868;9.080;2023-09-19T10:43:01;98031.81;;;20.36;64.53
77574;BME280;66710;48.868;9.080;2023-09-19T10:45:28;98038.09;;;19.94;62.30
77574;BME280;66710;48.868;9.080;2023-09-19T10:47:54;98024.09;;;20.20;61.20
77574;BME280;66710;48.868;9.080;2023-09-19T10:50:21;98019.22;;;19.96;62.16
77574;BME280;66710;48.868;9.080;2023-09-19T10:52:47;98029.06;;;20.06;61.70
77574;BME280;66710;48.868;9.080;2023-09-19T10:55:19;98036.81;;;20.42;61.57
77574;BME280;66710;48.868;9.080;2023-09-19T10:57:47;98030.59;;;21.21;59.55
77574;BME280;66710;48.868;9.080;2023-09-19T11:00:13;98033.69;;;20.23;61.38
77574;BME280;66710;48.868;9.080;2023-09-19T11:03:20;98034.13;;;20.55;60.77
77574;BME280;66710;48.868;9.080;2023-09-19T11:06:19;98030.75;;;20.91;66.24
77574;BME280;66710;48.868;9.080;2023-09-19T11:09:01;98026.41;;;21.02;66.08
77574;BME280;66710;48.868;9.080;2023-09-19T11:11:48;98035.75;;;20.35;69.54
77574;BME280;66710;48.868;9.080;2023-09-19T11:30:40;98008.63;;;21.62;63.89
77574;BME280;66710;48.868;9.080;2023-09-19T11:33:30;97999.41;;;21.94;63.18
77574;BME280;66710;48.868;9.080;2023-09-19T11:43:54;98001.81;;;20.59;63.95
77574;BME280;66710;48.868;9.080;2023-09-19T11:49:16;97999.25;;;23.25;61.26
77574;BME280;66710;48.868;9.080;2023-09-19T11:51:46;97999.06;;;20.17;64.01
77574;BME280;66710;48.868;9.080;2023-09-19T11:54:13;97993.97;;;21.98;59.25
77574;BME280;66710;48.868;9.080;2023-09-19T11:56:48;97984.19;;;22.41;56.56
77574;BME280;66710;48.868;9.080;2023-09-19T11:59:22;97987.38;;;22.03;57.81
77574;BME280;66710;48.868;9.080;2023-09-19T12:01:52;97993.78;;;21.33;60.91
77574;BME280;66710;48.868;9.080;2023-09-19T12:04:34;97987.06;;;21.80;56.68
77574;BME280;66710;48.868;9.080;2023-09-19T12:07:10;97987.13;;;22.08;56.08
77574;BME280;66710;48.868;9.080;2023-09-19T12:09:43;97977.81;;;23.41;53.62
77574;BME280;66710;48.868;9.080;2023-09-19T12:12:19;97985.28;;;23.37;53.91
77574;BME280;66710;48.868;9.080;2023-09-19T12:14:49;97968.00;;;22.71;50.96
77574;BME280;66710;48.868;9.080;2023-09-19T12:17:14;97982.94;;;22.67;52.09
77574;BME280;66710;48.868;9.080;2023-09-19T12:19:52;97977.50;;;21.44;53.05
77574;BME280;66710;48.868;9.080;2023-09-19T12:22:18;97986.63;;;22.30;50.54
77574;BME280;66710;48.868;9.080;2023-09-19T12:24:45;97980.44;;;21.72;51.10
77574;BME280;66710;48.868;9.080;2023-09-19T12:27:11;97957.13;;;22.38;51.89
77574;BME280;66710;48.868;9.080;2023-09-19T12:29:48;97964.91;;;22.89;50.82
77574;BME280;66710;48.868;9.080;2023-09-19T12:32:34;97963.13;;;23.41;49.79
77574;BME280;66710;48.868;9.080;2023-09-19T12:34:59;97961.97;;;23.26;48.63
77574;BME280;66710;48.868;9.080;2023-09-19T12:37:24;97962.13;;;22.32;49.87
77574;BME280;66710;48.868;9.080;2023-09-19T12:40:04;97963.09;;;22.81;48.49
77574;BME280;66710;48.868;9.080;2023-09-19T12:42:42;97947.81;;;21.93;48.76
77574;BME280;66710;48.868;9.080;2023-09-19T12:45:08;97952.03;;;22.68;48.47
77574;BME280;66710;48.868;9.080;2023-09-19T12:47:34;97948.53;;;21.90;49.20
77574;BME280;66710;48.868;9.080;2023-09-19T12:50:06;97954.97;;;22.31;48.29
77574;BME280;66710;48.868;9.080;2023-09-19T12:52:36;97948.03;;;22.53;47.94
77574;BME280;66710;48.868;9.080;2023-09-19T12:55:01;97940.78;;;22.49;47.79
77574;BME280;66710;48.868;9.080;2023-09-19T12:57:27;97937.50;;;23.03;49.10
77574;BME280;66710;48.868;9.080;2023-09-19T12:59:53;97941.22;;;23.07;47.83
77574;BME280;66710;48.868;9.080;2023-09-19T13:02:18;97932.50;;;22.65;49.04
77574;BME280;66710;48.868;9.080;2023-09-19T13:04:55;97936.69;;;23.98;45.54
77574;BME280;66710;48.868;9.080;2023-09-19T13:07:43;97925.47;;;23.95;47.28
77574;BME280;66710;48.868;9.080;2023-09-19T13:10:09;97936.63;;;23.31;46.19
77574;BME280;66710;48.868;9.080;2023-09-19T13:12:36;97934.84;;;23.07;46.81
77574;BME280;66710;48.868;9.080;2023-09-19T13:15:10;97931.56;;;23.17;46.83
77574;BME280;66710;48.868;9.080;2023-09-19T13:17:48;97925.03;;;22.12;48.14
77574;BME280;66710;48.868;9.080;2023-09-19T13:20:24;97926.69;;;23.14;47.01
77574;BME280;66710;48.868;9.080;2023-09-19T13:22:52;97941.88;;;22.60;50.98
77574;BME280;66710;48.868;9.080;2023-09-19T13:25:21;97932.34;;;21.92;51.55
77574;BME280;66710;48.868;9.080;2023-09-19T13:30:16;97924.38;;;23.32;48.07
77574;BME280;66710;48.868;9.080;2023-09-19T13:32:42;97927.00;;;22.97;49.08
77574;BME280;66710;48.868;9.080;2023-09-19T13:35:08;97921.34;;;23.73;46.14
77574;BME280;66710;48.868;9.080;2023-09-19T13:37:38;97922.69;;;22.14;48.54
77574;BME280;66710;48.868;9.080;2023-09-19T13:40:07;97923.78;;;22.10;49.92
77574;BME280;66710;48.868;9.080;2023-09-19T13:42:33;97920.16;;;22.50;48.75
77574;BME280;66710;48.868;9.080;2023-09-19T13:44:58;97922.06;;;21.93;50.38
77574;BME280;66710;48.868;9.080;2023-09-19T13:47:24;97921.41;;;22.65;48.81